Fruitland, Iowa
Current Conditions -  °F | °C
As of 5:35 PM on Monday 20 Oct 2014 (Local Time) from KMUT Reporting Station
Clear Clear  
Wind Chill: 68°   Ceiling: Unl
Heat Index: 68°   Visibility: 10mi
Dew Point: 43°   Wind: 9mph
Humidity: 40%   Direction: 320°NW
Pressure: 29.96"   Gusts: 18mph
Location:  41.36°N, 91.13°W
Report Text: KMUT 202235Z AUTO 32008G16KT 10SM CLR 20/06 A2996 RMK AO2
Loading
Personal Weather Stations






























Interactive Weather Map
Tropical Storm Tracking
New forecast layout! Learn more

10-Day Weather Forecast

Advertisements
Track Severe Weather on mobile